createdAt,value
2019-02-25T00:00:32.260Z,20.50
2019-02-25T00:03:00.814Z,22.98
2019-02-25T00:05:29.408Z,24.00
2019-02-25T00:07:57.908Z,21.25
2019-02-25T00:10:26.404Z,21.45
2019-02-25T00:12:54.893Z,18.62
2019-02-25T00:15:23.387Z,21.68
2019-02-25T00:17:51.882Z,45.65
2019-02-25T00:20:20.429Z,22.95
2019-02-25T00:22:48.924Z,25.65
2019-02-25T00:25:17.408Z,27.85
2019-02-25T00:27:45.908Z,28.23
2019-02-25T00:30:15.400Z,19.80
2019-02-25T00:32:43.888Z,17.87
2019-02-25T00:35:12.371Z,14.93
2019-02-25T00:37:40.874Z,19.67
2019-02-25T00:40:11.197Z,18.92
2019-02-25T00:42:39.704Z,14.45
2019-02-25T00:45:10.322Z,13.18
2019-02-25T00:47:38.825Z,13.08
2019-02-25T00:50:10.682Z,16.40
2019-02-25T00:52:39.179Z,17.12
2019-02-25T00:55:08.375Z,16.57
2019-02-25T00:57:36.870Z,13.83
2019-02-25T01:00:14.089Z,13.08
2019-02-25T01:02:42.569Z,13.70
2019-02-25T01:05:11.135Z,7.75
2019-02-25T01:07:39.668Z,7.08
2019-02-25T01:10:10.367Z,5.10
2019-02-25T01:12:39.252Z,5.20
2019-02-25T01:15:09.512Z,5.58
2019-02-25T01:17:38.111Z,6.22
2019-02-25T01:20:09.310Z,17.67
2019-02-25T01:22:37.786Z,8.73
2019-02-25T01:25:08.943Z,10.68
2019-02-25T01:27:37.436Z,11.75
2019-02-25T01:30:19.061Z,10.58
2019-02-25T01:32:47.555Z,12.13
2019-02-25T01:35:16.050Z,13.88
2019-02-25T01:37:44.543Z,8.73
2019-02-25T01:40:13.928Z,6.60
2019-02-25T01:42:42.415Z,5.75
2019-02-25T01:45:18.700Z,6.22
2019-02-25T01:47:47.245Z,7.47
2019-02-25T01:50:15.766Z,5.30
2019-02-25T01:52:44.237Z,5.65
2019-02-25T01:55:14.281Z,4.95
2019-02-25T01:57:42.773Z,5.72
2019-02-25T02:00:18.491Z,4.85
2019-02-25T02:02:46.971Z,3.80
2019-02-25T02:05:15.453Z,4.10
2019-02-25T02:07:43.941Z,5.78
2019-02-25T02:10:16.293Z,5.22
2019-02-25T02:12:46.306Z,4.67
2019-02-25T02:15:19.752Z,5.03
2019-02-25T02:17:48.241Z,5.67
2019-02-25T02:20:17.229Z,6.53
2019-02-25T02:22:45.722Z,7.53
2019-02-25T02:25:14.491Z,9.88
2019-02-25T02:27:42.974Z,7.67
2019-02-25T02:30:14.070Z,7.65
2019-02-25T02:32:42.646Z,5.10
2019-02-25T02:35:11.180Z,4.58
2019-02-25T02:37:39.657Z,4.00
2019-02-25T02:40:12.325Z,4.62
2019-02-25T02:42:44.003Z,7.53
2019-02-25T02:45:15.754Z,8.70
2019-02-25T02:47:56.089Z,10.28
2019-02-25T02:50:25.092Z,10.40
2019-02-25T02:52:53.622Z,9.65
2019-02-25T02:55:22.113Z,10.65
2019-02-25T02:57:50.624Z,12.73
2019-02-25T03:00:19.798Z,13.83
2019-02-25T03:02:48.296Z,15.32
2019-02-25T03:05:17.487Z,15.93
2019-02-25T03:07:45.971Z,15.35
2019-02-25T03:10:16.262Z,14.55
2019-02-25T03:12:44.757Z,31.30
2019-02-25T03:15:17.821Z,17.07
2019-02-25T03:17:46.313Z,10.23
2019-02-25T03:20:14.909Z,12.23
2019-02-25T03:22:43.403Z,13.45
2019-02-25T03:25:13.900Z,13.05
2019-02-25T03:27:42.399Z,11.48
2019-02-25T03:30:15.947Z,8.18
2019-02-25T03:32:44.446Z,8.05
2019-02-25T03:35:12.931Z,11.08
2019-02-25T03:37:41.430Z,8.93
2019-02-25T03:40:12.421Z,9.23
2019-02-25T03:42:40.926Z,6.62
2019-02-25T03:45:11.613Z,5.45
2019-02-25T03:47:40.161Z,5.50
2019-02-25T03:50:08.943Z,7.40
2019-02-25T03:52:37.439Z,5.42
2019-02-25T03:55:08.779Z,6.10
2019-02-25T03:57:37.261Z,6.62
2019-02-25T04:00:08.888Z,6.60
2019-02-25T04:02:37.384Z,7.03
2019-02-25T04:05:06.663Z,6.10
2019-02-25T04:07:35.193Z,6.22
2019-02-25T04:10:05.268Z,6.40
2019-02-25T04:12:34.425Z,7.30
2019-02-25T04:15:03.115Z,6.85
2019-02-25T04:17:31.600Z,6.53
2019-02-25T04:20:00.708Z,7.33
2019-02-25T04:22:29.205Z,6.05
2019-02-25T04:24:57.690Z,7.87
2019-02-25T04:27:26.255Z,7.08
2019-02-25T04:29:54.749Z,7.08
2019-02-25T04:32:23.232Z,6.97
2019-02-25T04:34:51.729Z,7.87
2019-02-25T04:37:20.216Z,7.53
2019-02-25T04:39:48.705Z,5.58
2019-02-25T04:42:17.184Z,4.92
2019-02-25T04:44:45.673Z,4.58
2019-02-25T04:47:14.213Z,5.05
2019-02-25T04:49:42.692Z,4.50
2019-02-25T04:52:11.241Z,4.85
2019-02-25T04:54:39.732Z,4.40
2019-02-25T04:57:08.214Z,4.30
2019-02-25T04:59:36.709Z,4.42
2019-02-25T05:02:05.239Z,5.58
2019-02-25T05:04:33.762Z,5.58
2019-02-25T05:07:02.262Z,16.67
2019-02-25T05:09:30.751Z,12.70
2019-02-25T05:11:59.258Z,10.00
2019-02-25T05:14:27.744Z,13.43
2019-02-25T05:16:56.240Z,13.30
2019-02-25T05:19:24.734Z,11.10
2019-02-25T05:21:53.222Z,10.70
2019-02-25T05:24:21.782Z,9.90
2019-02-25T05:26:50.263Z,8.25
2019-02-25T05:29:18.741Z,7.42
2019-02-25T05:31:47.285Z,16.97
2019-02-25T05:34:15.781Z,7.60
2019-02-25T05:36:44.270Z,10.60
2019-02-25T05:39:12.772Z,11.63
2019-02-25T05:41:41.251Z,9.70
2019-02-25T05:44:09.744Z,13.88
2019-02-25T05:46:38.233Z,13.80
2019-02-25T05:49:06.732Z,13.48
2019-02-25T05:51:35.221Z,13.35
2019-02-25T05:54:03.786Z,9.10
2019-02-25T05:56:32.288Z,6.78
2019-02-25T05:59:00.789Z,17.15
2019-02-25T06:01:29.290Z,14.28
2019-02-25T06:03:57.782Z,20.43
2019-02-25T06:06:26.287Z,17.27
2019-02-25T06:08:54.783Z,11.15
2019-02-25T06:11:23.317Z,11.73
2019-02-25T06:13:51.806Z,14.95
2019-02-25T06:16:20.307Z,12.95
2019-02-25T06:18:48.803Z,11.65
2019-02-25T06:21:17.299Z,13.80
2019-02-25T06:23:45.793Z,13.68
2019-02-25T06:26:14.291Z,12.80
2019-02-25T06:28:42.770Z,16.50
2019-02-25T06:31:11.274Z,19.15
2019-02-25T06:33:39.753Z,15.32
2019-02-25T06:36:08.318Z,14.25
2019-02-25T06:38:36.797Z,28.07
2019-02-25T06:41:05.283Z,32.38
2019-02-25T06:43:33.774Z,14.47
2019-02-25T06:46:02.273Z,11.48
2019-02-25T06:48:30.763Z,16.20
2019-02-25T06:50:59.255Z,15.60
2019-02-25T06:53:27.740Z,16.35
2019-02-25T06:55:56.235Z,14.63
2019-02-25T06:58:24.725Z,19.90
2019-02-25T07:00:53.221Z,17.40
2019-02-25T07:03:21.714Z,13.50
2019-02-25T07:05:51.777Z,14.90
2019-02-25T07:08:21.842Z,16.62
2019-02-25T07:10:54.926Z,17.70
2019-02-25T07:13:37.019Z,18.55
2019-02-25T07:16:10.049Z,14.03
2019-02-25T07:18:56.277Z,14.53
2019-02-25T07:21:29.035Z,14.03
2019-02-25T07:24:15.786Z,14.03
2019-02-25T07:27:01.175Z,22.00
2019-02-25T07:29:37.288Z,17.20
2019-02-25T07:32:10.088Z,34.13
2019-02-25T07:34:55.178Z,30.27
2019-02-25T07:37:31.421Z,14.73
2019-02-25T07:40:04.227Z,24.57
2019-02-25T07:42:37.332Z,12.90
2019-02-25T07:45:16.065Z,13.15
2019-02-25T07:47:48.823Z,14.47
2019-02-25T07:50:36.899Z,11.40
2019-02-25T07:53:23.616Z,13.20
2019-02-25T07:56:02.118Z,16.15
2019-02-25T07:58:25.507Z,11.78
2019-02-25T08:00:58.474Z,11.08
2019-02-25T08:03:34.719Z,11.55
2019-02-25T08:06:07.782Z,12.45
2019-02-25T08:08:43.825Z,14.45
2019-02-25T08:11:21.742Z,18.00
2019-02-25T08:14:07.888Z,14.35
2019-02-25T08:16:46.955Z,14.05
2019-02-25T08:19:35.164Z,11.93
2019-02-25T08:22:20.301Z,13.18
2019-02-25T08:24:50.361Z,17.27
2019-02-25T08:27:20.453Z,13.35
2019-02-25T08:29:50.516Z,14.10
2019-02-25T08:32:23.575Z,13.00
2019-02-25T08:34:59.721Z,11.68
2019-02-25T08:37:53.776Z,7.75
2019-02-25T08:40:38.987Z,5.15
2019-02-25T08:43:23.893Z,5.58
2019-02-25T08:45:56.688Z,3.92
2019-02-25T08:48:35.896Z,5.35
2019-02-25T08:51:04.392Z,5.08
2019-02-25T08:53:32.900Z,4.17
2019-02-25T08:56:01.383Z,4.30
2019-02-25T08:58:29.931Z,3.55
2019-02-25T09:00:58.416Z,4.30
2019-02-25T09:03:26.904Z,4.37
2019-02-25T09:05:55.403Z,4.17
2019-02-25T09:08:23.900Z,3.55
2019-02-25T09:10:52.382Z,3.55
2019-02-25T09:13:20.878Z,4.17
2019-02-25T09:15:49.379Z,3.98
2019-02-25T09:18:17.922Z,3.67
2019-02-25T09:20:46.406Z,4.28
2019-02-25T09:23:14.885Z,4.20
2019-02-25T09:25:43.390Z,4.42
2019-02-25T09:28:11.881Z,4.37
2019-02-25T09:30:40.374Z,4.80
2019-02-25T09:33:08.902Z,4.90
2019-02-25T09:35:37.394Z,4.28
2019-02-25T09:38:05.947Z,4.12
2019-02-25T09:40:34.436Z,4.40
2019-02-25T09:43:02.932Z,2.30
2019-02-25T09:45:31.444Z,4.10
2019-02-25T09:47:59.928Z,3.75
2019-02-25T09:50:28.416Z,4.00
2019-02-25T09:52:56.957Z,2.80
2019-02-25T09:55:25.408Z,4.55
2019-02-25T09:57:53.902Z,3.27
2019-02-25T10:00:23.946Z,3.65
2019-02-25T10:02:52.424Z,3.67
2019-02-25T10:05:20.914Z,3.70
2019-02-25T10:07:49.414Z,3.65
2019-02-25T10:10:18.695Z,2.50
2019-02-25T10:12:47.176Z,2.55
2019-02-25T10:15:27.108Z,3.75
2019-02-25T10:17:55.596Z,3.62
2019-02-25T10:20:24.075Z,3.92
2019-02-25T10:22:52.566Z,3.10
2019-02-25T10:25:21.045Z,4.15
2019-02-25T10:27:49.878Z,4.22
2019-02-25T10:30:19.407Z,3.15
2019-02-25T10:32:47.921Z,4.97
2019-02-25T10:35:27.029Z,5.50
2019-02-25T10:37:55.246Z,2.62
2019-02-25T10:40:25.362Z,9.48
2019-02-25T10:42:53.986Z,5.35
2019-02-25T10:45:23.287Z,5.90
2019-02-25T10:47:56.012Z,3.12
2019-02-25T10:50:21.984Z,2.80
2019-02-25T10:52:50.481Z,4.22
2019-02-25T10:55:25.167Z,2.52
2019-02-25T10:57:56.565Z,2.85
2019-02-25T11:00:23.870Z,3.62
2019-02-25T11:02:53.550Z,4.80
2019-02-25T11:05:23.362Z,3.70
2019-02-25T11:07:52.775Z,4.58
2019-02-25T11:10:31.817Z,4.22
2019-02-25T11:13:02.069Z,3.00
2019-02-25T11:15:32.124Z,3.22
2019-02-25T11:18:00.668Z,3.10
2019-02-25T11:20:29.700Z,3.20
2019-02-25T11:22:59.335Z,2.02
2019-02-25T11:25:28.529Z,3.22
2019-02-25T11:27:58.028Z,3.37
2019-02-25T11:30:26.520Z,4.60
2019-02-25T11:32:56.214Z,4.95
2019-02-25T11:35:25.210Z,6.58
2019-02-25T11:37:54.729Z,5.17
2019-02-25T11:40:25.912Z,5.42
2019-02-25T11:42:54.326Z,5.37
2019-02-25T11:45:22.900Z,6.65
2019-02-25T11:47:51.397Z,7.15
2019-02-25T11:50:20.784Z,6.30
2019-02-25T11:52:49.273Z,6.00
2019-02-25T11:55:17.762Z,6.85
2019-02-25T11:57:46.252Z,6.17
2019-02-25T12:00:20.151Z,6.25
2019-02-25T12:02:48.641Z,6.28
2019-02-25T12:05:18.233Z,6.42
2019-02-25T12:07:46.711Z,6.17
2019-02-25T12:10:18.600Z,6.55
2019-02-25T12:12:47.077Z,7.47
2019-02-25T12:15:20.388Z,7.65
2019-02-25T12:17:48.878Z,10.45
2019-02-25T12:20:17.397Z,7.20
2019-02-25T12:22:45.883Z,10.30
2019-02-25T12:25:15.877Z,8.58
2019-02-25T12:27:44.385Z,7.65
2019-02-25T12:30:18.311Z,8.58
2019-02-25T12:32:46.799Z,6.90
2019-02-25T12:35:15.283Z,7.83
2019-02-25T12:37:43.770Z,7.05
2019-02-25T12:40:14.051Z,8.20
2019-02-25T12:42:42.538Z,5.62
2019-02-25T12:45:17.727Z,6.45
2019-02-25T12:47:46.229Z,6.65
2019-02-25T12:50:18.745Z,6.28
2019-02-25T12:52:47.233Z,7.20
2019-02-25T12:55:16.717Z,7.67
2019-02-25T12:57:45.207Z,6.20
2019-02-25T13:00:24.571Z,6.50
2019-02-25T13:02:53.059Z,6.35
2019-02-25T13:05:25.727Z,6.97
2019-02-25T13:07:54.708Z,8.18
2019-02-25T13:10:23.183Z,7.00
2019-02-25T13:12:51.947Z,8.08
2019-02-25T13:15:21.740Z,7.37
2019-02-25T13:17:50.245Z,7.35
2019-02-25T13:20:18.727Z,9.40
2019-02-25T13:22:47.221Z,8.58
2019-02-25T13:25:26.590Z,8.18
2019-02-25T13:27:58.309Z,8.75
2019-02-25T13:30:25.287Z,9.03
2019-02-25T13:32:53.773Z,8.30
2019-02-25T13:35:22.253Z,8.45
2019-02-25T13:37:50.744Z,8.60
2019-02-25T13:40:19.221Z,8.80
2019-02-25T13:42:47.710Z,8.05
2019-02-25T13:45:17.293Z,8.15
2019-02-25T13:47:45.776Z,9.70
2019-02-25T13:50:16.220Z,9.70
2019-02-25T13:52:48.440Z,15.90
2019-02-25T13:55:18.043Z,12.25
2019-02-25T13:57:47.014Z,13.78
2019-02-25T14:00:17.295Z,8.53
2019-02-25T14:02:45.897Z,10.40
2019-02-25T14:05:14.528Z,9.98
2019-02-25T14:07:43.018Z,7.70
2019-02-25T14:10:12.701Z,9.73
2019-02-25T14:12:41.196Z,7.92
2019-02-25T14:15:14.976Z,7.67
2019-02-25T14:17:43.464Z,9.85
2019-02-25T14:20:14.712Z,9.33
2019-02-25T14:22:43.193Z,8.60
2019-02-25T14:25:13.591Z,12.33
2019-02-25T14:27:42.068Z,8.40
2019-02-25T14:30:16.978Z,8.55
2019-02-25T14:32:45.462Z,8.95
2019-02-25T14:35:13.962Z,14.05
2019-02-25T14:37:42.431Z,9.85
2019-02-25T14:40:16.684Z,12.45
2019-02-25T14:42:46.844Z,9.48
2019-02-25T14:45:19.637Z,10.18
2019-02-25T14:47:46.987Z,8.60
2019-02-25T14:50:17.262Z,9.03
2019-02-25T14:52:45.766Z,12.65
2019-02-25T14:55:14.755Z,41.33
2019-02-25T14:57:43.890Z,86.08
2019-02-25T15:00:16.477Z,176.05
2019-02-25T15:02:45.977Z,126.78
2019-02-25T15:05:17.157Z,80.10
2019-02-25T15:07:46.736Z,139.85
2019-02-25T15:10:16.021Z,56.75
2019-02-25T15:12:44.507Z,24.00
2019-02-25T15:15:23.376Z,13.25
2019-02-25T15:17:52.774Z,18.25
2019-02-25T15:20:24.073Z,25.82
2019-02-25T15:22:52.708Z,31.50
2019-02-25T15:25:21.482Z,28.47
2019-02-25T15:27:49.970Z,14.43
2019-02-25T15:30:28.289Z,10.23
2019-02-25T15:32:58.753Z,16.95
2019-02-25T15:35:31.450Z,17.98
2019-02-25T15:37:57.841Z,16.87
2019-02-25T15:40:27.453Z,12.37
2019-02-25T15:43:15.060Z,12.65
2019-02-25T15:45:42.683Z,10.85
2019-02-25T15:48:13.885Z,9.68
2019-02-25T15:50:46.103Z,8.38
2019-02-25T15:53:15.968Z,11.22
2019-02-25T15:55:43.532Z,12.35
2019-02-25T15:58:12.232Z,14.05
2019-02-25T16:00:41.035Z,16.42
2019-02-25T16:03:11.309Z,19.15
2019-02-25T16:05:39.735Z,19.77
2019-02-25T16:08:08.237Z,25.57
2019-02-25T16:10:36.724Z,31.45
2019-02-25T16:13:09.432Z,27.07
2019-02-25T16:15:35.421Z,39.90
2019-02-25T16:18:03.910Z,39.95
2019-02-25T16:20:32.703Z,25.80
2019-02-25T16:23:02.868Z,23.25
2019-02-25T16:25:32.225Z,20.77
2019-02-25T16:28:01.347Z,29.37
2019-02-25T16:30:30.727Z,20.35
2019-02-25T16:32:59.999Z,22.98
2019-02-25T16:35:29.622Z,22.45
2019-02-25T16:37:59.908Z,27.35
2019-02-25T16:40:29.147Z,23.30
2019-02-25T16:42:59.667Z,35.00
2019-02-25T16:45:34.757Z,42.30
2019-02-25T16:47:58.988Z,35.78
2019-02-25T16:50:27.687Z,26.52
2019-02-25T16:52:56.289Z,22.40
2019-02-25T16:55:27.616Z,27.90
2019-02-25T16:57:55.800Z,30.15
2019-02-25T17:00:29.460Z,31.10
2019-02-25T17:02:59.236Z,33.20
2019-02-25T17:05:27.330Z,11.00
2019-02-25T17:07:56.407Z,19.60
2019-02-25T17:10:27.142Z,38.70
2019-02-25T17:12:55.817Z,48.48
2019-02-25T17:15:26.312Z,77.53
2019-02-25T17:17:58.321Z,56.40
2019-02-25T17:20:27.845Z,81.53
2019-02-25T17:22:55.246Z,77.97
2019-02-25T17:25:26.934Z,35.73
2019-02-25T17:27:53.940Z,38.17
2019-02-25T17:30:24.067Z,39.78
2019-02-25T17:32:52.606Z,47.55
2019-02-25T17:35:23.596Z,50.20
2019-02-25T17:37:53.397Z,46.65
2019-02-25T17:40:22.097Z,50.23
2019-02-25T17:42:51.634Z,27.40
2019-02-25T17:45:27.710Z,20.35
2019-02-25T17:47:58.583Z,15.78
2019-02-25T17:50:26.666Z,14.58
2019-02-25T17:52:55.151Z,11.43
2019-02-25T17:55:27.259Z,11.90
2019-02-25T17:57:56.867Z,16.05
2019-02-25T18:00:31.932Z,16.10
2019-02-25T18:03:01.989Z,18.02
2019-02-25T18:05:33.497Z,20.20
2019-02-25T18:08:02.976Z,41.37
2019-02-25T18:10:31.694Z,37.38
2019-02-25T18:13:01.597Z,28.80
2019-02-25T18:15:32.796Z,23.67
2019-02-25T18:18:01.408Z,22.10
2019-02-25T18:20:30.351Z,22.70
2019-02-25T18:22:59.313Z,23.27
2019-02-25T18:25:27.798Z,23.02
2019-02-25T18:27:56.290Z,17.95
2019-02-25T18:30:30.100Z,15.15
2019-02-25T18:33:00.958Z,14.25
2019-02-25T18:35:29.074Z,17.92
2019-02-25T18:37:58.502Z,24.20
2019-02-25T18:40:28.240Z,33.28
2019-02-25T18:42:58.212Z,30.30
2019-02-25T18:45:26.944Z,36.83
2019-02-25T18:47:55.439Z,42.55
2019-02-25T18:50:26.337Z,40.60
2019-02-25T18:52:55.020Z,44.42
2019-02-25T18:55:27.180Z,49.58
2019-02-25T18:57:56.297Z,56.05
2019-02-25T19:00:36.426Z,63.25
2019-02-25T19:03:05.717Z,59.42
2019-02-25T19:05:34.207Z,62.33
2019-02-25T19:08:03.693Z,60.00
2019-02-25T19:10:32.186Z,58.58
2019-02-25T19:13:01.163Z,57.85
2019-02-25T19:15:29.633Z,60.20
2019-02-25T19:17:58.137Z,52.33
2019-02-25T19:20:26.828Z,46.33
2019-02-25T19:22:58.135Z,42.67
2019-02-25T19:25:25.890Z,40.63
2019-02-25T19:27:56.474Z,42.73
2019-02-25T19:30:25.393Z,47.78
2019-02-25T19:32:54.930Z,45.58
2019-02-25T19:35:27.802Z,40.38
2019-02-25T19:37:54.651Z,44.53
2019-02-25T19:40:24.635Z,37.80
2019-02-25T19:42:54.276Z,38.15
2019-02-25T19:45:23.404Z,51.73
2019-02-25T19:47:51.899Z,36.63
2019-02-25T19:50:21.724Z,20.60
2019-02-25T19:52:50.219Z,25.72
2019-02-25T19:55:20.645Z,25.85
2019-02-25T19:57:48.961Z,25.37
2019-02-25T20:00:25.673Z,23.02
2019-02-25T20:03:04.816Z,23.30
2019-02-25T20:05:26.587Z,42.48
2019-02-25T20:07:55.082Z,48.38
2019-02-25T20:10:23.588Z,37.42
2019-02-25T20:12:53.218Z,24.55
2019-02-25T20:15:25.236Z,23.80
2019-02-25T20:17:55.274Z,35.83
2019-02-25T20:20:25.409Z,78.37
2019-02-25T20:22:53.900Z,54.50
2019-02-25T20:25:24.643Z,29.12
2019-02-25T20:27:54.985Z,12.70
2019-02-25T20:30:23.632Z,10.35
2019-02-25T20:32:53.221Z,8.35
2019-02-25T20:35:22.230Z,10.40
2019-02-25T20:37:53.769Z,16.32
2019-02-25T20:40:24.163Z,12.20
2019-02-25T20:42:53.478Z,20.05
2019-02-25T20:45:30.453Z,14.33
2019-02-25T20:47:59.667Z,12.13
2019-02-25T20:50:29.106Z,11.22
2019-02-25T20:52:59.123Z,10.03
2019-02-25T20:55:29.430Z,7.50
2019-02-25T20:57:58.008Z,11.40
2019-02-25T21:00:26.596Z,6.42
2019-02-25T21:02:55.076Z,7.95
2019-02-25T21:05:25.286Z,6.75
2019-02-25T21:07:55.522Z,8.18
2019-02-25T21:10:24.990Z,6.92
2019-02-25T21:12:54.778Z,9.90
2019-02-25T21:15:24.442Z,6.78
2019-02-25T21:17:55.056Z,8.98
2019-02-25T21:20:23.759Z,9.33
2019-02-25T21:22:57.335Z,9.10
2019-02-25T21:25:26.426Z,12.10
2019-02-25T21:27:57.167Z,8.20
2019-02-25T21:30:23.984Z,7.00
2019-02-25T21:32:54.119Z,5.67
2019-02-25T21:35:25.470Z,6.30
2019-02-25T21:37:54.636Z,6.87
2019-02-25T21:40:26.893Z,5.67
2019-02-25T21:42:56.388Z,6.22
2019-02-25T21:45:27.096Z,7.05
2019-02-25T21:47:56.635Z,7.83
2019-02-25T21:50:28.338Z,5.67
2019-02-25T21:52:55.221Z,5.55
2019-02-25T21:55:25.727Z,5.75
2019-02-25T21:57:54.944Z,5.22
2019-02-25T22:00:29.233Z,5.75
2019-02-25T22:02:57.046Z,5.50
2019-02-25T22:05:25.516Z,8.73
2019-02-25T22:07:55.417Z,7.60
2019-02-25T22:10:24.206Z,8.80
2019-02-25T22:12:52.731Z,7.65
2019-02-25T22:15:22.449Z,9.55
2019-02-25T22:17:53.280Z,8.73
2019-02-25T22:20:22.104Z,12.03
2019-02-25T22:22:54.416Z,8.28
2019-02-25T22:25:22.834Z,6.67
2019-02-25T22:27:51.318Z,7.45
2019-02-25T22:30:19.804Z,7.62
2019-02-25T22:32:48.289Z,7.37
2019-02-25T22:35:16.817Z,7.10
2019-02-25T22:37:49.228Z,6.05
2019-02-25T22:40:18.433Z,7.08
2019-02-25T22:42:49.819Z,6.78
2019-02-25T22:45:22.340Z,6.50
2019-02-25T22:47:50.821Z,6.00
2019-02-25T22:50:19.372Z,6.25
2019-02-25T22:52:51.605Z,6.47
2019-02-25T22:55:20.338Z,23.02
2019-02-25T22:57:50.919Z,6.83
2019-02-25T23:00:34.445Z,6.50
2019-02-25T23:03:03.034Z,7.22
2019-02-25T23:05:31.519Z,6.45
2019-02-25T23:08:00.008Z,6.45
2019-02-25T23:10:28.488Z,6.33
2019-02-25T23:12:56.968Z,6.05
2019-02-25T23:15:27.467Z,6.25
2019-02-25T23:18:04.674Z,6.10
2019-02-25T23:20:27.347Z,6.30
2019-02-25T23:22:57.369Z,5.40
2019-02-25T23:25:26.475Z,6.10
2019-02-25T23:27:55.628Z,6.17
2019-02-25T23:30:25.176Z,6.20
2019-02-25T23:32:54.449Z,6.55
2019-02-25T23:35:25.299Z,6.58
2019-02-25T23:37:54.410Z,7.22
2019-02-25T23:40:23.802Z,6.67
2019-02-25T23:42:52.287Z,5.87
2019-02-25T23:45:23.034Z,5.53
2019-02-25T23:47:55.226Z,5.35
2019-02-25T23:50:21.175Z,6.50
2019-02-25T23:52:49.655Z,6.65
2019-02-25T23:55:19.646Z,6.97
2019-02-25T23:57:48.347Z,7.50
